NORTHEAST SUFFOLK  -  Special Weather Statement Special Weather Statement        NORTHERN NASSAU  -  Special Weather Statement Special Weather Statement        NORTHWEST SUFFOLK  -  Special Weather Statement Special Weather Statement        SOUTHEAST SUFFOLK  -  Special Weather Statement Special Weather Statement        SOUTHERN NASSAU  -  Special Weather Statement Special Weather Statement        SOUTHWEST SUFFOLK  -  Special Weather Statement Special Weather Statement      

Active alerts

Northern Nassau
  Details for Northern Nassau Special Weather Statement
Southern Nassau
  Details for Southern Nassau Special Weather Statement
Northwest Suffolk
  Details for Northwest Suffolk Special Weather Statement
Southwest Suffolk
  Details for Southwest Suffolk Special Weather Statement
Northeast Suffolk
  Details for Northeast Suffolk Special Weather Statement
Southeast Suffolk
  Details for Southeast Suffolk Special Weather Statement


WXM80 ListenWXM80 Stop

You find our weather info also at:

UK Metoffice

WeatherCloud

Weather Underground

Northeastern Weather Network

AWEKAS

Citizen Weather Observer Program (CWOP)

HAMweather, WeatherForYou, PWS Weather


Weather Underground History page Text

Daily Summary for December 24, 2016 Units:  English    Metric   Both
« Previous Day
Next Day »
Daily Weekly Monthly Yearly Custom
  High: Low: Average:
Temperature: 44.2 °F 39.1 °F 41.3 °F
Dew Point: 42.6 °F 30.0 °F 36.4 °F
Humidity: 96 % 68 % 83 %
Wind Speed: 7.5 mph 0.0 mph 2.6 mph
Wind Gust: 29.0 mph - -
Wind:- - WSW
Pressure: 30.35 in 30.02 in -
Precipitation: 0.42 in    
Historical Graphs
 
 
Tabular Data for December 24, 2016
Time Temperature Dew Point Pressure Wind Wind Speed Wind Gust Humidity Rainfall Rate (Hourly)
00:01 39.7 °F 30.0 °F 30.33 in SW 0.5 mph 29.0 mph 68 % 0.00 in
00:06 39.7 °F 30.0 °F 30.34 in WSW 1.9 mph 29.0 mph 68 % 0.00 in
00:11 39.7 °F 30.0 °F 30.33 in SW 1.3 mph 29.0 mph 68 % 0.00 in
00:17 39.7 °F 30.0 °F 30.34 in SSW 1.5 mph 29.0 mph 68 % 0.00 in
00:22 39.7 °F 30.0 °F 30.33 in SSW 1.5 mph 29.0 mph 68 % 0.00 in
00:27 39.7 °F 30.0 °F 30.33 in SSW 2.1 mph 29.0 mph 68 % 0.00 in
00:32 39.7 °F 30.4 °F 30.34 in WSW 4.7 mph 29.0 mph 69 % 0.00 in
00:37 39.7 °F 30.0 °F 30.33 in SSW 1.8 mph 29.0 mph 68 % 0.00 in
00:42 39.8 °F 30.1 °F 30.34 in SW 3.7 mph 29.0 mph 68 % 0.00 in
00:47 39.8 °F 30.1 °F 30.35 in WSW 6.1 mph 29.0 mph 68 % 0.00 in
00:52 39.9 °F 30.2 °F 30.32 in SSE 0.3 mph 29.0 mph 68 % 0.00 in
00:54 39.9 °F 30.2 °F 30.32 in SSW 0.6 mph 29.0 mph 68 % 0.00 in
00:59 40.0 °F 30.3 °F 30.32 in SW 2.2 mph 29.0 mph 68 % 0.00 in
01:04 40.0 °F 30.3 °F 30.33 in SSW 0.6 mph 29.0 mph 68 % 0.00 in
01:09 39.9 °F 30.2 °F 30.32 in Calm   29.0 mph 68 % 0.00 in
01:14 39.9 °F 30.2 °F 30.33 in SSW 2.0 mph 5.0 mph 68 % 0.00 in
01:19 39.9 °F 30.2 °F 30.33 in SSW 3.0 mph 7.0 mph 68 % 0.00 in
01:24 39.9 °F 30.2 °F 30.33 in SSW 3.0 mph 7.0 mph 68 % 0.00 in
01:29 39.9 °F 30.2 °F 30.33 in SSW 3.1 mph 29.0 mph 68 % 0.00 in
01:34 39.9 °F 30.2 °F 30.33 in SSW 3.0 mph 7.0 mph 68 % 0.00 in
01:39 40.0 °F 30.3 °F 30.32 in South 3.1 mph 29.0 mph 68 % 0.00 in
01:44 40.0 °F 30.3 °F 30.31 in SSW 1.0 mph 5.0 mph 68 % 0.00 in
01:49 40.0 °F 30.3 °F 30.31 in SSW 1.0 mph 4.0 mph 68 % 0.00 in
01:54 40.0 °F 30.3 °F 30.31 in Calm   29.0 mph 68 % 0.00 in
01:59 39.9 °F 30.2 °F 30.30 in South 0.4 mph 29.0 mph 68 % 0.00 in
02:04 39.9 °F 30.2 °F 30.30 in Calm   29.0 mph 68 % 0.00 in
02:09 39.9 °F 30.5 °F 30.30 in South 1.2 mph 29.0 mph 69 % 0.00 in
02:15 39.8 °F 30.5 °F 30.30 in SW 1.9 mph 29.0 mph 69 % 0.00 in
02:20 39.8 °F 30.8 °F 30.32 in SSW 3.5 mph 29.0 mph 70 % 0.00 in
02:25 39.8 °F 30.8 °F 30.31 in SSW 1.4 mph 29.0 mph 70 % 0.00 in
02:30 39.7 °F 31.1 °F 30.31 in SSW 2.7 mph 29.0 mph 71 % 0.00 in
02:35 39.7 °F 31.1 °F 30.31 in SSW 1.9 mph 29.0 mph 71 % 0.00 in
02:40 39.8 °F 31.2 °F 30.30 in South 0.5 mph 29.0 mph 71 % 0.00 in
02:45 39.8 °F 31.5 °F 30.30 in SSW 1.3 mph 29.0 mph 72 % 0.00 in
02:50 39.8 °F 31.5 °F 30.30 in South 0.1 mph 29.0 mph 72 % 0.00 in
02:55 39.8 °F 31.5 °F 30.29 in Calm   29.0 mph 72 % 0.00 in
03:00 39.8 °F 31.5 °F 30.28 in South 0.8 mph 29.0 mph 72 % 0.00 in
03:05 39.8 °F 31.5 °F 30.28 in Calm   29.0 mph 72 % 0.00 in
03:10 39.8 °F 31.5 °F 30.28 in South 0.2 mph 29.0 mph 72 % 0.00 in
03:15 39.8 °F 31.8 °F 30.27 in South 1.1 mph 29.0 mph 73 % 0.00 in
03:21 39.8 °F 31.8 °F 30.28 in SSW 2.8 mph 29.0 mph 73 % 0.00 in
03:26 39.8 °F 32.2 °F 30.28 in WSW 2.5 mph 29.0 mph 74 % 0.00 in
03:31 39.8 °F 32.5 °F 30.28 in SSW 3.4 mph 29.0 mph 75 % 0.00 in
03:36 39.8 °F 32.5 °F 30.28 in SSW 3.3 mph 29.0 mph 75 % 0.00 in
03:41 39.9 °F 32.6 °F 30.29 in WSW 3.5 mph 29.0 mph 75 % 0.00 in
03:46 40.0 °F 32.7 °F 30.28 in WSW 2.0 mph 29.0 mph 75 % 0.00 in
03:51 40.1 °F 32.8 °F 30.27 in West 1.7 mph 29.0 mph 75 % 0.00 in
03:56 40.2 °F 32.9 °F 30.26 in Calm   29.0 mph 75 % 0.00 in
04:01 40.2 °F 32.9 °F 30.25 in Calm   29.0 mph 75 % 0.00 in
04:06 40.2 °F 32.9 °F 30.25 in SW 0.3 mph 29.0 mph 75 % 0.00 in
04:11 40.3 °F 32.7 °F 30.25 in SW 0.6 mph 29.0 mph 74 % 0.00 in
04:21 40.3 °F 32.7 °F 30.25 in South 3.4 mph 29.0 mph 74 % 0.00 in
04:26 40.3 °F 32.7 °F 30.24 in SW 1.1 mph 29.0 mph 74 % 0.00 in
04:31 40.3 °F 32.7 °F 30.24 in SSW 2.7 mph 29.0 mph 74 % 0.00 in
04:36 40.4 °F 32.8 °F 30.23 in WSW 2.7 mph 29.0 mph 74 % 0.00 in
04:41 40.4 °F 33.1 °F 30.23 in SSW 4.0 mph 29.0 mph 75 % 0.00 in
04:47 40.5 °F 33.2 °F 30.23 in South 3.7 mph 29.0 mph 75 % 0.00 in
04:52 40.6 °F 33.3 °F 30.23 in SSW 3.3 mph 29.0 mph 75 % 0.00 in
04:57 40.6 °F 33.3 °F 30.22 in South 2.3 mph 29.0 mph 75 % 0.00 in
05:02 40.7 °F 33.7 °F 30.23 in SSW 5.5 mph 29.0 mph 76 % 0.00 in
05:07 40.8 °F 33.8 °F 30.23 in SW 5.4 mph 29.0 mph 76 % 0.00 in
05:12 40.9 °F 33.9 °F 30.23 in SW 2.3 mph 29.0 mph 76 % 0.00 in
05:17 41.0 °F 34.0 °F 30.24 in WSW 5.3 mph 29.0 mph 76 % 0.00 in
05:22 41.1 °F 34.1 °F 30.24 in SSW 3.1 mph 29.0 mph 76 % 0.00 in
05:27 41.2 °F 34.2 °F 30.24 in SSW 2.4 mph 29.0 mph 76 % 0.00 in
05:32 41.3 °F 34.3 °F 30.23 in SW 3.4 mph 29.0 mph 76 % 0.00 in
05:37 41.3 °F 34.3 °F 30.24 in South 4.4 mph 29.0 mph 76 % 0.00 in
05:42 41.4 °F 34.4 °F 30.23 in West 0.5 mph 29.0 mph 76 % 0.00 in
05:48 41.5 °F 34.5 °F 30.23 in SW 3.6 mph 29.0 mph 76 % 0.00 in
05:53 41.6 °F 34.6 °F 30.21 in WSW 1.5 mph 29.0 mph 76 % 0.00 in
05:58 41.6 °F 34.6 °F 30.21 in SW 4.2 mph 29.0 mph 76 % 0.00 in
06:03 41.7 °F 34.7 °F 30.21 in SSW 1.9 mph 29.0 mph 76 % 0.00 in
06:08 41.8 °F 34.8 °F 30.21 in SSW 2.0 mph 29.0 mph 76 % 0.00 in
06:13 41.9 °F 34.9 °F 30.22 in SSE 5.3 mph 29.0 mph 76 % 0.00 in
06:18 42.0 °F 35.0 °F 30.22 in SW 1.8 mph 29.0 mph 76 % 0.00 in
06:23 42.1 °F 35.1 °F 30.22 in SW 1.1 mph 29.0 mph 76 % 0.00 in
06:28 42.2 °F 35.5 °F 30.22 in SW 4.9 mph 29.0 mph 77 % 0.00 in
06:33 42.3 °F 35.6 °F 30.22 in SSW 2.8 mph 29.0 mph 77 % 0.00 in
06:38 42.4 °F 36.0 °F 30.23 in WSW 5.9 mph 29.0 mph 78 % 0.00 in
06:43 42.5 °F 36.1 °F 30.25 in WSW 5.4 mph 29.0 mph 78 % 0.00 in
06:48 42.6 °F 36.5 °F 30.25 in SW 7.5 mph 29.0 mph 79 % 0.00 in
06:53 42.7 °F 36.6 °F 30.24 in SW 5.8 mph 29.0 mph 79 % 0.00 in
06:58 42.7 °F 36.6 °F 30.24 in SW 2.3 mph 29.0 mph 79 % 0.00 in
07:03 42.7 °F 37.0 °F 30.24 in WSW 1.0 mph 29.0 mph 80 % 0.00 in
07:08 42.7 °F 37.3 °F 30.24 in WNW 3.4 mph 29.0 mph 81 % 0.00 in
07:14 42.7 °F 37.3 °F 30.24 in SW 3.1 mph 29.0 mph 81 % 0.00 in
07:19 42.6 °F 37.5 °F 30.23 in WSW 3.2 mph 29.0 mph 82 % 0.00 in
07:24 42.4 °F 37.3 °F 30.23 in West 1.8 mph 29.0 mph 82 % 0.00 in
07:29 42.3 °F 37.5 °F 30.22 in West 3.6 mph 29.0 mph 83 % 0.00 in
07:34 42.1 °F 37.3 °F 30.23 in WSW 2.8 mph 29.0 mph 83 % 0.01 in
07:39 41.8 °F 37.0 °F 30.23 in SW 3.4 mph 29.0 mph 83 % 0.02 in
07:44 41.4 °F 36.6 °F 30.22 in WSW 4.3 mph 29.0 mph 83 % 0.02 in
07:49 41.1 °F 36.6 °F 30.22 in SW 1.8 mph 29.0 mph 84 % 0.03 in
07:54 40.9 °F 36.7 °F 30.21 in SW 2.2 mph 29.0 mph 85 % 0.03 in
07:59 40.7 °F 36.5 °F 30.20 in West 3.6 mph 29.0 mph 85 % 0.03 in
08:04 40.4 °F 36.5 °F 30.20 in SW 0.8 mph 29.0 mph 86 % 0.04 in
08:09 40.3 °F 36.4 °F 30.20 in SW 4.1 mph 29.0 mph 86 % 0.04 in
08:14 40.1 °F 36.5 °F 30.20 in SW 0.9 mph 29.0 mph 87 % 0.04 in
08:19 40.0 °F 36.4 °F 30.19 in SSW 1.6 mph 29.0 mph 87 % 0.05 in
08:24 39.8 °F 36.2 °F 30.19 in Calm   6.0 mph 87 % 0.00 in
08:29 39.7 °F 36.4 °F 30.19 in SSW 1.0 mph 4.0 mph 88 % 0.00 in
08:34 39.6 °F 36.3 °F 30.19 in SSW 1.0 mph 3.0 mph 88 % 0.00 in
08:39 39.5 °F 36.5 °F 30.20 in SW 2.3 mph 29.0 mph 89 % 0.05 in
08:44 39.4 °F 36.4 °F 30.19 in SW 2.0 mph 8.0 mph 89 % 0.00 in
08:49 39.3 °F 36.3 °F 30.19 in Calm   5.0 mph 89 % 0.00 in
08:54 39.3 °F 36.6 °F 30.18 in Calm   3.0 mph 90 % 0.00 in
08:59 39.2 °F 36.5 °F 30.19 in SSW 2.0 mph 29.0 mph 90 % 0.06 in
09:04 39.2 °F 36.5 °F 30.18 in SW 3.0 mph 6.0 mph 90 % 0.00 in
09:09 39.2 °F 36.8 °F 30.18 in WSW 2.0 mph 5.0 mph 91 % 0.00 in
09:14 39.2 °F 36.7 °F 30.17 in SW 1.0 mph 4.0 mph 91 % 0.00 in
09:19 39.1 °F 36.7 °F 30.17 in Calm   2.0 mph 91 % 0.00 in
09:24 39.1 °F 36.7 °F 30.16 in SW 1.0 mph 3.0 mph 91 % 0.00 in
09:37 39.2 °F 37.1 °F 30.15 in WSW 2.5 mph 29.0 mph 92 % 0.07 in
09:43 39.2 °F 37.1 °F 30.13 in SSE 1.2 mph 29.0 mph 92 % 0.08 in
10:05 39.4 °F 37.5 °F 30.12 in WSW 1.6 mph 29.0 mph 93 % 0.06 in
10:08 39.5 °F 37.6 °F 30.13 in West 1.2 mph 29.0 mph 93 % 0.07 in
10:16 39.5 °F 37.6 °F 30.11 in West 1.6 mph 29.0 mph 93 % 0.07 in
10:18 39.5 °F 37.9 °F 30.11 in West 1.0 mph 29.0 mph 94 % 0.07 in
10:20 39.5 °F 37.9 °F 30.10 in West 2.0 mph 29.0 mph 94 % 0.07 in
10:22 39.6 °F 38.0 °F 30.10 in WSW 1.0 mph 29.0 mph 94 % 0.07 in
10:26 39.6 °F 38.0 °F 30.10 in West 2.2 mph 29.0 mph 94 % 0.08 in
10:27 39.6 °F 38.0 °F 30.10 in West 1.6 mph 29.0 mph 94 % 0.08 in
10:31 39.6 °F 38.0 °F 30.10 in WSW 1.1 mph 29.0 mph 94 % 0.07 in
10:43 39.5 °F 37.9 °F 30.09 in SW 0.5 mph 29.0 mph 94 % 0.09 in
10:48 39.5 °F 37.9 °F 30.09 in SW 5.1 mph 29.0 mph 94 % 0.10 in
10:56 39.5 °F 37.9 °F 30.08 in WNW 2.2 mph 29.0 mph 94 % 0.10 in
11:03 39.6 °F 38.0 °F 30.08 in WSW 2.3 mph 29.0 mph 94 % 0.12 in
11:08 39.6 °F 38.0 °F 30.08 in SW 1.2 mph 29.0 mph 94 % 0.12 in
11:17 39.6 °F 38.0 °F 30.07 in WSW 4.0 mph 29.0 mph 94 % 0.12 in
11:45 39.9 °F 38.6 °F 30.06 in WNW 1.1 mph 29.0 mph 95 % 0.10 in
12:00 40.0 °F 38.7 °F 30.05 in West 2.6 mph 29.0 mph 95 % 0.09 in
12:05 40.0 °F 38.7 °F 30.05 in WNW 3.0 mph 29.0 mph 95 % 0.08 in
12:07 40.1 °F 38.8 °F 30.05 in WSW 1.4 mph 29.0 mph 95 % 0.08 in
12:08 40.1 °F 38.8 °F 30.05 in WSW 1.2 mph 29.0 mph 95 % 0.08 in
12:20 40.3 °F 39.0 °F 30.05 in WSW 5.0 mph 8.0 mph 95 % 0.01 in
12:32 40.5 °F 39.2 °F 30.05 in West 2.9 mph 29.0 mph 95 % 0.07 in
12:40 40.5 °F 39.4 °F 30.04 in SW 3.4 mph 29.0 mph 96 % 0.07 in
12:43 40.6 °F 39.5 °F 30.04 in SW 1.2 mph 29.0 mph 96 % 0.07 in
12:48 40.6 °F 39.5 °F 30.04 in West 0.7 mph 29.0 mph 96 % 0.07 in
12:49 40.6 °F 39.5 °F 30.04 in West 0.6 mph 29.0 mph 96 % 0.07 in
12:50 40.6 °F 39.5 °F 30.04 in West 0.9 mph 29.0 mph 96 % 0.07 in
12:56 40.7 °F 39.6 °F 30.04 in WSW 4.6 mph 29.0 mph 96 % 0.05 in
13:07 40.9 °F 39.8 °F 30.04 in SW 3.1 mph 29.0 mph 96 % 0.04 in
13:13 41.1 °F 40.0 °F 30.04 in WSW 4.5 mph 29.0 mph 96 % 0.05 in
13:16 41.2 °F 40.1 °F 30.04 in WSW 3.4 mph 29.0 mph 96 % 0.04 in
13:20 41.3 °F 40.2 °F 30.04 in WSW 2.0 mph 9.0 mph 96 % 0.00 in
13:31 41.7 °F 40.6 °F 30.03 in WSW 3.0 mph 9.0 mph 96 % 0.00 in
13:43 42.2 °F 41.1 °F 30.02 in WSW 1.2 mph 29.0 mph 96 % 0.02 in
13:50 42.4 °F 41.3 °F 30.02 in WNW 5.6 mph 29.0 mph 96 % 0.01 in
13:56 42.6 °F 41.5 °F 30.02 in SW 1.3 mph 29.0 mph 96 % 0.01 in
14:00 42.7 °F 41.6 °F 30.02 in West 5.7 mph 29.0 mph 96 % 0.01 in
14:15 43.0 °F 41.9 °F 30.02 in WSW 4.0 mph 29.0 mph 96 % 0.00 in
14:21 43.2 °F 42.1 °F 30.02 in SW 3.3 mph 29.0 mph 96 % 0.00 in
14:27 43.3 °F 42.2 °F 30.02 in WSW 3.2 mph 29.0 mph 96 % 0.00 in
14:42 43.6 °F 42.5 °F 30.03 in West 6.6 mph 29.0 mph 96 % 0.00 in
14:53 43.8 °F 42.5 °F 30.03 in WSW 2.7 mph 29.0 mph 95 % 0.00 in
15:01 43.9 °F 42.6 °F 30.03 in West 5.2 mph 29.0 mph 95 % 0.00 in
15:10 44.0 °F 42.4 °F 30.03 in WSW 4.0 mph 29.0 mph 94 % 0.00 in
15:27 44.1 °F 42.5 °F 30.04 in West 4.3 mph 29.0 mph 94 % 0.00 in
15:33 44.1 °F 42.5 °F 30.05 in WSW 3.4 mph 29.0 mph 94 % 0.00 in
15:51 44.2 °F 42.0 °F 30.06 in WSW 3.8 mph 29.0 mph 92 % 0.00 in
15:58 44.2 °F 42.0 °F 30.06 in WSW 4.5 mph 29.0 mph 92 % 0.00 in
16:15 44.1 °F 41.6 °F 30.06 in SW 3.9 mph 29.0 mph 91 % 0.00 in
16:31 43.8 °F 41.3 °F 30.06 in WSW 2.7 mph 29.0 mph 91 % 0.00 in
16:35 43.7 °F 41.2 °F 30.07 in WSW 2.6 mph 29.0 mph 91 % 0.00 in
17:01 43.2 °F 41.0 °F 30.07 in WSW 2.3 mph 29.0 mph 92 % 0.00 in
17:12 42.9 °F 40.7 °F 30.07 in WSW 2.6 mph 29.0 mph 92 % 0.00 in
17:29 42.6 °F 40.5 °F 30.08 in WSW 3.0 mph 6.0 mph 92 % 0.00 in
17:31 42.6 °F 40.4 °F 30.08 in SW 3.2 mph 29.0 mph 92 % 0.00 in
17:51 42.4 °F 40.5 °F 30.08 in SSW 2.8 mph 29.0 mph 93 % 0.00 in
17:54 42.4 °F 40.5 °F 30.08 in WSW 1.7 mph 29.0 mph 93 % 0.00 in
18:02 42.4 °F 40.5 °F 30.08 in WSW 2.5 mph 29.0 mph 93 % 0.00 in
18:13 42.4 °F 40.5 °F 30.09 in South 4.8 mph 29.0 mph 93 % 0.00 in
18:16 42.4 °F 40.5 °F 30.09 in NW 2.4 mph 29.0 mph 93 % 0.00 in
18:23 42.4 °F 40.5 °F 30.10 in WSW 2.3 mph 29.0 mph 93 % 0.00 in
18:27 42.4 °F 40.5 °F 30.10 in SW 3.5 mph 29.0 mph 93 % 0.00 in
18:38 42.4 °F 40.5 °F 30.10 in WSW 5.7 mph 29.0 mph 93 % 0.00 in
18:44 42.4 °F 40.5 °F 30.11 in West 3.4 mph 29.0 mph 93 % 0.00 in
18:52 42.5 °F 40.3 °F 30.11 in WNW 2.7 mph 29.0 mph 92 % 0.00 in
19:07 42.8 °F 40.4 °F 30.12 in WSW 4.4 mph 29.0 mph 91 % 0.00 in
19:12 42.9 °F 40.2 °F 30.12 in WSW 2.7 mph 29.0 mph 90 % 0.00 in
19:15 43.0 °F 40.3 °F 30.12 in WSW 3.1 mph 29.0 mph 90 % 0.00 in
19:21 43.2 °F 40.2 °F 30.12 in WSW 2.5 mph 29.0 mph 89 % 0.00 in
19:23 43.2 °F 40.2 °F 30.13 in WSW 4.1 mph 29.0 mph 89 % 0.00 in
19:29 43.3 °F 40.0 °F 30.13 in NW 3.8 mph 29.0 mph 88 % 0.00 in
19:45 43.7 °F 39.8 °F 30.14 in WSW 3.0 mph 29.0 mph 86 % 0.00 in
19:49 43.8 °F 39.6 °F 30.14 in WSW 3.9 mph 29.0 mph 85 % 0.00 in
19:54 43.8 °F 39.6 °F 30.14 in West 3.1 mph 29.0 mph 85 % 0.00 in
19:58 43.7 °F 39.5 °F 30.14 in NW 2.0 mph 29.0 mph 85 % 0.00 in
20:09 43.7 °F 39.2 °F 30.15 in West 4.8 mph 29.0 mph 84 % 0.00 in
20:14 43.8 °F 39.3 °F 30.14 in WNW 3.8 mph 29.0 mph 84 % 0.00 in
20:23 43.7 °F 39.2 °F 30.15 in West 3.8 mph 29.0 mph 84 % 0.00 in
20:36 43.7 °F 39.2 °F 30.16 in WNW 2.6 mph 29.0 mph 84 % 0.00 in
20:47 43.6 °F 39.1 °F 30.16 in WSW 3.2 mph 29.0 mph 84 % 0.00 in
20:50 43.6 °F 39.1 °F 30.16 in WNW 1.9 mph 29.0 mph 84 % 0.00 in
20:54 43.5 °F 39.0 °F 30.17 in NW 3.6 mph 29.0 mph 84 % 0.00 in
21:04 43.6 °F 38.8 °F 30.17 in NW 1.8 mph 29.0 mph 83 % 0.00 in
21:11 43.5 °F 38.7 °F 30.18 in West 1.7 mph 29.0 mph 83 % 0.00 in
21:14 43.5 °F 38.7 °F 30.18 in West 3.2 mph 29.0 mph 83 % 0.00 in
21:24 43.4 °F 38.6 °F 30.18 in WNW 3.4 mph 29.0 mph 83 % 0.00 in
21:26 43.3 °F 38.5 °F 30.18 in WSW 2.6 mph 29.0 mph 83 % 0.00 in
21:29 43.3 °F 38.5 °F 30.19 in West 2.0 mph 29.0 mph 83 % 0.00 in
21:31 43.3 °F 38.5 °F 30.19 in NW 4.0 mph 29.0 mph 83 % 0.00 in
21:37 43.2 °F 38.7 °F 30.19 in WNW 1.6 mph 29.0 mph 84 % 0.00 in
21:52 43.0 °F 38.2 °F 30.19 in NW 2.4 mph 29.0 mph 83 % 0.00 in
22:01 42.9 °F 38.1 °F 30.20 in WNW 1.9 mph 29.0 mph 83 % 0.00 in
22:15 42.7 °F 38.2 °F 30.21 in NW 3.4 mph 29.0 mph 84 % 0.00 in
22:24 42.5 °F 38.0 °F 30.21 in WNW 2.7 mph 29.0 mph 84 % 0.00 in
22:46 42.2 °F 37.7 °F 30.22 in WNW 3.7 mph 29.0 mph 84 % 0.00 in
22:48 42.2 °F 37.7 °F 30.22 in WNW 5.9 mph 29.0 mph 84 % 0.00 in
22:54 42.2 °F 37.7 °F 30.22 in NW 2.5 mph 29.0 mph 84 % 0.00 in
22:56 42.2 °F 37.7 °F 30.22 in WNW 3.0 mph 29.0 mph 84 % 0.00 in
22:59 42.2 °F 37.4 °F 30.22 in NW 4.0 mph 29.0 mph 83 % 0.00 in
23:00 42.2 °F 37.4 °F 30.22 in WNW 5.2 mph 29.0 mph 83 % 0.00 in
23:05 42.2 °F 37.4 °F 30.22 in WSW 6.7 mph 29.0 mph 83 % 0.00 in
23:10 42.2 °F 37.4 °F 30.22 in WNW 3.9 mph 29.0 mph 83 % 0.00 in
23:15 42.2 °F 37.4 °F 30.22 in WNW 3.0 mph 29.0 mph 83 % 0.00 in
23:20 42.2 °F 37.4 °F 30.22 in West 3.4 mph 29.0 mph 83 % 0.00 in
23:25 42.2 °F 37.4 °F 30.23 in West 4.1 mph 29.0 mph 83 % 0.00 in
23:31 42.1 °F 37.3 °F 30.23 in WNW 2.6 mph 29.0 mph 83 % 0.00 in
23:36 42.1 °F 37.6 °F 30.24 in West 1.6 mph 29.0 mph 84 % 0.00 in
23:41 42.0 °F 37.5 °F 30.25 in NW 1.3 mph 29.0 mph 84 % 0.00 in
23:46 41.9 °F 37.4 °F 30.25 in Calm   29.0 mph 84 % 0.00 in
23:51 41.8 °F 37.3 °F 30.25 in West 1.5 mph 29.0 mph 84 % 0.00 in
23:56 41.7 °F 37.2 °F 30.25 in SW 1.3 mph 29.0 mph 84 % 0.00 in
Crab Meadow Weather
Compliments of Weather Underground - 2.5 mb

Script developed by  Jim McMurry - jmcmurry@mwt.net Adapted for the template by  Wim van der Kuil - Leuven-Template.eu

Recycling: Americans throw away 25,000,000,000 Styrofoam coffee cups every year.